Vorden, California
Current Conditions -  °F | °C
As of 5:35 AM on Friday 28 Nov 2014 (Local Time) from KSAC Reporting Station
Haze Haze  
Wind Chill: 37°   Ceiling: Unl
Heat Index: 37°   Visibility: 1.2mi
Dew Point: 36°   Wind: 0mph
Humidity: 93%   Direction: NA
Pressure: 30"   Gusts: NA
Location:  38.2298°N, 121.579°W
Report Text: KSAC 281335Z AUTO 00000KT 1 1/4SM BR FEW015 03/02 A3000 RMK AO2
Loading
Personal Weather Stations






























Interactive Weather Map New forecast layout! Learn more

10-Day Weather Forecast

Advertisements
Track Severe Weather on mobile